Bookmark and Share
Track history (hours):
 

Voyager Of The Seas

Operator: Royal Caribbean Cruises Ltd

Last reported at 2014-Apr-15 11:34 UTC. Time now 2014-Apr-19 04:30 UTC.
Position N 22°50' E 120°01'.

Type: Passenger vessel. MMSI: 311317000.

NotesDate/timePositionNaut miles runAvg speedWind from/ knotsBaromVisibWave heightAir tempDewpointWater temp
2014-Apr-15 11:34N 22°50' E 120°01'2020.3
2014-Apr-15 10:34N 22°33' E 120°13'5 5.3
2014-Apr-15 09:34N 22°35' E 120°18'2 2.0
2014-Apr-15 08:34N 22°37' E 120°17'0 0.0
2014-Apr-15 07:34N 22°37' E 120°17'0 0.0
2014-Apr-15 06:34N 22°37' E 120°17'0 0.0
2014-Apr-15 05:34N 22°37' E 120°17'0 0.0
2014-Apr-15 03:34N 22°37' E 120°17'0 0.0
2014-Apr-15 02:34N 22°37' E 120°17'4 4.0
2014-Apr-15 01:34N 22°33' E 120°19'5 4.5
2014-Apr-15 00:34N 22°32' E 120°15'1414.3
2014-Apr-14 23:34N 22°29' E 119°59'32118.9
2014-Apr-14 06:33N 22°18' E 114°13'0 0.0
2014-Apr-13 22:19N 22°18' E 114°13'0 0.0
2014-Apr-13 21:13N 22°18' E 114°13'0 0.0
2014-Apr-13 20:13N 22°18' E 114°13'0 0.0
2014-Apr-13 19:31N 22°18' E 114°13'0 0.0
2014-Apr-13 17:13N 22°18' E 114°13'0 0.0
2014-Apr-13 16:26N 22°18' E 114°13'0 0.0
2014-Apr-13 15:25N 22°18' E 114°13'0 0.0
2014-Apr-13 14:31N 22°18' E 114°13'0 0.2
2014-Apr-13 13:33N 22°18' E 114°13'  
2014-Apr-10 11:09N 01°14' E 103°58'711.2
2014-Apr-10 10:32N 01°15' E 103°51'1 0.4
2014-Apr-10 07:27N 01°16' E 103°52'0 0.0
2014-Apr-10 05:21N 01°16' E 103°52'0 0.0
2014-Apr-10 04:14N 01°16' E 103°52'0 0.0
2014-Apr-10 03:32N 01°16' E 103°52'0 0.0
2014-Apr-10 00:20N 01°16' E 103°52'0 0.1
2014-Apr-09 22:33N 01°16' E 103°52'  

Dump ship's entire track history

sailing weather and tide predictions

Voyager Of The Seas — C6SE5 — position and weather